createdAt,value
2022-11-16T00:01:25.021Z,99041.94
2022-11-16T00:07:12.083Z,99033.88
2022-11-16T00:12:58.766Z,99036.84
2022-11-16T00:18:45.471Z,99043.81
2022-11-16T00:24:32.230Z,99046.78
2022-11-16T00:30:18.863Z,99068.22
2022-11-16T00:36:07.855Z,99070.53
2022-11-16T00:41:54.530Z,99071.50
2022-11-16T00:47:41.396Z,99069.28
2022-11-16T00:53:28.183Z,99055.47
2022-11-16T00:59:14.848Z,99043.47
2022-11-16T01:05:02.557Z,99037.53
2022-11-16T01:10:49.476Z,99024.19
2022-11-16T01:16:36.742Z,99027.34
2022-11-16T01:22:23.429Z,99028.28
2022-11-16T01:28:10.338Z,99022.19
2022-11-16T01:34:07.181Z,99030.47
2022-11-16T01:39:56.947Z,99026.06
2022-11-16T01:45:45.457Z,99030.47
2022-11-16T01:51:35.132Z,99028.47
2022-11-16T01:57:32.023Z,99019.59
2022-11-16T02:03:28.431Z,99046.16
2022-11-16T02:09:52.995Z,99048.66
2022-11-16T02:16:12.701Z,99048.59
2022-11-16T02:22:14.197Z,99055.13
2022-11-16T02:28:15.272Z,99050.09
2022-11-16T02:34:05.114Z,99037.41
2022-11-16T02:39:59.604Z,99020.31
2022-11-16T02:45:49.862Z,99005.69
2022-11-16T02:51:39.925Z,99001.81
2022-11-16T02:58:03.586Z,99019.69
2022-11-16T03:04:02.953Z,99015.63
2022-11-16T03:09:51.179Z,99021.41
2022-11-16T03:15:41.300Z,99017.97
2022-11-16T03:21:33.423Z,99013.31
2022-11-16T03:27:30.307Z,99003.47
2022-11-16T03:33:50.200Z,99001.50
2022-11-16T03:39:39.554Z,99004.16
2022-11-16T03:45:27.878Z,99000.53
2022-11-16T03:51:16.785Z,98991.22
2022-11-16T03:57:03.754Z,98997.25
2022-11-16T04:02:50.621Z,98983.28
2022-11-16T04:08:59.059Z,98994.34
2022-11-16T04:15:05.203Z,98985.47
2022-11-16T04:21:26.212Z,98993.56
2022-11-16T04:27:34.159Z,98994.63
2022-11-16T04:33:41.707Z,99001.44
2022-11-16T04:39:28.478Z,98988.88
2022-11-16T04:45:34.178Z,98980.47
2022-11-16T04:51:21.743Z,98961.97
2022-11-16T04:57:08.708Z,98956.41
2022-11-16T05:03:00.969Z,98950.31
2022-11-16T05:08:48.671Z,98938.34
2022-11-16T05:14:36.113Z,98937.84
2022-11-16T05:20:41.488Z,98939.91
2022-11-16T05:26:29.140Z,98948.91
2022-11-16T05:32:17.470Z,98938.34
2022-11-16T05:38:04.803Z,98942.53
2022-11-16T05:43:56.084Z,98943.63
2022-11-16T05:49:42.877Z,98934.75
2022-11-16T05:55:29.769Z,98950.75
2022-11-16T06:01:16.611Z,98943.63
2022-11-16T06:07:03.603Z,98952.47
2022-11-16T06:12:54.396Z,98950.81
2022-11-16T06:18:43.948Z,98946.31
2022-11-16T06:24:30.979Z,98942.44
2022-11-16T06:30:18.913Z,98935.94
2022-11-16T06:36:06.128Z,98933.72
2022-11-16T06:41:52.870Z,98927.06
2022-11-16T06:47:39.806Z,98907.47
2022-11-16T06:53:30.591Z,98897.19
2022-11-16T06:59:26.261Z,98879.94
2022-11-16T07:05:13.364Z,98889.41
2022-11-16T07:11:04.428Z,98881.91
2022-11-16T07:16:59.024Z,98881.50
2022-11-16T07:22:47.018Z,98880.22
2022-11-16T07:28:36.288Z,98887.09
2022-11-16T07:34:23.615Z,98900.63
2022-11-16T07:40:21.818Z,98905.72
2022-11-16T07:52:22.350Z,98904.66
2022-11-16T07:58:21.343Z,98918.34
2022-11-16T08:04:09.209Z,98920.06
2022-11-16T08:09:59.846Z,98918.19
2022-11-16T08:15:47.301Z,98925.50
2022-11-16T08:21:36.684Z,98899.66
2022-11-16T08:27:23.976Z,98908.03
2022-11-16T08:33:13.431Z,98896.38
2022-11-16T08:39:00.607Z,98895.38
2022-11-16T08:44:48.804Z,98901.31
2022-11-16T08:51:02.377Z,98894.59
2022-11-16T08:56:45.627Z,98896.63
2022-11-16T09:02:35.129Z,98906.06
2022-11-16T09:08:22.298Z,98893.28
2022-11-16T09:14:09.410Z,98893.69
2022-11-16T09:19:58.728Z,98892.81
2022-11-16T09:25:53.627Z,98899.03
2022-11-16T09:31:41.051Z,98908.41
2022-11-16T09:37:27.797Z,98902.06
2022-11-16T09:43:45.332Z,98897.44
2022-11-16T09:49:38.471Z,98905.72
2022-11-16T09:55:32.512Z,98895.34
2022-11-16T10:01:34.748Z,98893.59
2022-11-16T10:07:27.905Z,98885.97
2022-11-16T10:13:36.848Z,98885.19
2022-11-16T10:19:52.510Z,98888.50
2022-11-16T10:25:44.839Z,98890.63
2022-11-16T10:31:42.735Z,98877.34
2022-11-16T10:37:32.012Z,98872.91
2022-11-16T10:43:23.211Z,98871.91
2022-11-16T10:49:33.623Z,98876.41
2022-11-16T10:55:22.559Z,98863.94
2022-11-16T11:01:10.906Z,98866.16
2022-11-16T11:07:21.383Z,98858.44
2022-11-16T11:13:11.378Z,98861.97
2022-11-16T11:19:31.733Z,98859.09
2022-11-16T11:25:24.946Z,98849.59
2022-11-16T11:31:32.248Z,98835.09
2022-11-16T11:37:44.963Z,98822.38
2022-11-16T11:43:34.348Z,98811.09
2022-11-16T11:49:33.208Z,98811.31
2022-11-16T11:55:20.535Z,98804.47
2022-11-16T12:01:29.876Z,98794.66
2022-11-16T12:07:37.844Z,98782.75
2022-11-16T12:13:51.080Z,98785.78
2022-11-16T12:20:11.474Z,98780.63
2022-11-16T12:26:05.278Z,98762.63
2022-11-16T12:32:08.092Z,98753.13
2022-11-16T12:38:00.377Z,98761.09
2022-11-16T12:50:38.464Z,98750.69
2022-11-16T12:56:32.350Z,98760.34
2022-11-16T13:02:34.028Z,98753.13
2022-11-16T13:08:23.629Z,98751.63
2022-11-16T13:14:24.905Z,98738.78
2022-11-16T13:20:30.651Z,98733.41
2022-11-16T13:27:18.330Z,98718.50
2022-11-16T13:33:51.025Z,98714.59
2022-11-16T13:40:00.140Z,98695.69
2022-11-16T13:45:49.783Z,98687.25
2022-11-16T13:51:36.518Z,98686.81
2022-11-16T13:57:27.240Z,98679.22
2022-11-16T14:03:19.813Z,98659.88
2022-11-16T14:09:31.909Z,98664.03
2022-11-16T14:15:25.086Z,98623.56
2022-11-16T14:21:36.503Z,98612.81
2022-11-16T14:27:49.394Z,98603.94
2022-11-16T14:33:37.784Z,98607.81
2022-11-16T14:39:27.836Z,98598.63
2022-11-16T14:45:22.876Z,98583.75
2022-11-16T14:51:39.162Z,98589.13
2022-11-16T14:57:45.584Z,98578.31
2022-11-16T15:03:49.551Z,98572.75
2022-11-16T15:09:39.368Z,98569.63
2022-11-16T15:15:28.977Z,98561.16
2022-11-16T15:21:23.445Z,98569.22
2022-11-16T15:27:34.975Z,98561.66
2022-11-16T15:33:46.478Z,98555.69
2022-11-16T15:39:36.145Z,98540.00
2022-11-16T15:45:25.533Z,98524.13
2022-11-16T15:51:12.309Z,98508.44
2022-11-16T15:57:07.920Z,98504.56
2022-11-16T16:03:06.399Z,98511.09
2022-11-16T16:09:07.306Z,98472.88
2022-11-16T16:15:24.952Z,98474.66
2022-11-16T16:21:14.029Z,98465.28
2022-11-16T16:27:01.028Z,98442.50
2022-11-16T16:32:50.530Z,98422.09
2022-11-16T16:38:38.739Z,98406.19
2022-11-16T16:44:25.431Z,98399.03
2022-11-16T16:50:12.305Z,98384.63
2022-11-16T16:56:04.133Z,98360.41
2022-11-16T17:01:51.622Z,98337.28
2022-11-16T17:07:38.434Z,98316.50
2022-11-16T17:13:25.253Z,98296.84
2022-11-16T17:19:14.770Z,98256.69
2022-11-16T17:25:01.752Z,98260.63
2022-11-16T17:37:50.592Z,98233.19
2022-11-16T17:43:37.723Z,98229.38
2022-11-16T17:49:27.442Z,98222.53
2022-11-16T17:55:16.036Z,98222.31
2022-11-16T18:01:03.315Z,98207.19
2022-11-16T18:06:50.954Z,98187.53
2022-11-16T18:12:38.608Z,98155.00
2022-11-16T18:18:27.242Z,98145.16
2022-11-16T18:24:52.935Z,98121.47
2022-11-16T18:30:43.076Z,98102.75
2022-11-16T18:36:37.552Z,98090.88
2022-11-16T18:42:24.520Z,98067.00
2022-11-16T18:48:11.260Z,98024.44
2022-11-16T18:53:58.242Z,97998.44
2022-11-16T18:59:45.904Z,97970.84
2022-11-16T19:05:32.676Z,97944.50
2022-11-16T19:11:19.595Z,97911.34
2022-11-16T19:17:06.375Z,97874.91
2022-11-16T19:22:59.327Z,97826.97
2022-11-16T19:28:47.904Z,97805.03
2022-11-16T19:34:35.259Z,97783.63
2022-11-16T19:40:25.403Z,97745.25
2022-11-16T19:46:17.003Z,97731.66
2022-11-16T19:52:07.342Z,97718.59
2022-11-16T19:57:55.203Z,97692.91
2022-11-16T20:03:51.927Z,97660.03
2022-11-16T20:09:38.794Z,97622.88
2022-11-16T20:15:26.493Z,97577.69
2022-11-16T20:21:30.853Z,97591.44
2022-11-16T20:27:17.436Z,97536.53
2022-11-16T20:33:04.225Z,97551.47
2022-11-16T20:38:51.809Z,97521.16
2022-11-16T20:44:40.227Z,97500.84
2022-11-16T20:50:36.495Z,97539.50
2022-11-16T20:56:27.173Z,97467.78
2022-11-16T21:02:13.991Z,97453.34
2022-11-16T21:08:02.194Z,97434.91
2022-11-16T21:14:08.174Z,97411.88
2022-11-16T21:20:25.876Z,97405.72
2022-11-16T21:26:12.295Z,97389.63
2022-11-16T21:32:00.105Z,97381.34
2022-11-16T21:37:58.220Z,97375.03
2022-11-16T21:43:47.138Z,97363.88
2022-11-16T21:49:54.264Z,97345.91
2022-11-16T21:55:50.233Z,97349.72
2022-11-16T22:02:00.285Z,97356.28
2022-11-16T22:07:47.193Z,97351.28
2022-11-16T22:13:34.391Z,97343.03
2022-11-16T22:19:21.306Z,97334.25
2022-11-16T22:25:08.560Z,97327.88
2022-11-16T22:31:10.049Z,97325.63
2022-11-16T22:36:57.360Z,97322.63
2022-11-16T22:42:44.120Z,97315.25
2022-11-16T22:48:32.688Z,97307.78
2022-11-16T22:54:22.220Z,97312.16
2022-11-16T23:00:15.261Z,97294.22
2022-11-16T23:06:02.823Z,97271.16
2022-11-16T23:12:08.032Z,97258.66
2022-11-16T23:17:55.507Z,97261.69
2022-11-16T23:24:01.185Z,97256.44
2022-11-16T23:29:48.198Z,97231.81
2022-11-16T23:35:43.945Z,97209.44
2022-11-16T23:41:49.467Z,97202.25
2022-11-16T23:47:40.177Z,97177.13
2022-11-16T23:53:29.809Z,97152.53
2022-11-16T23:59:17.011Z,97157.09
